createdAt,value
2022-09-03T00:01:36.730Z,18.52
2022-09-03T00:06:58.178Z,18.26
2022-09-03T00:11:51.094Z,18.20
2022-09-03T00:16:51.033Z,18.18
2022-09-03T00:21:50.968Z,18.16
2022-09-03T00:26:50.874Z,18.15
2022-09-03T00:31:50.859Z,18.07
2022-09-03T00:36:50.787Z,18.04
2022-09-03T00:41:50.696Z,17.97
2022-09-03T00:46:50.901Z,17.98
2022-09-03T00:51:50.561Z,18.05
2022-09-03T00:56:50.512Z,18.08
2022-09-03T01:01:50.503Z,18.05
2022-09-03T01:06:50.428Z,18.01
2022-09-03T01:11:50.306Z,17.97
2022-09-03T01:16:50.268Z,18.00
2022-09-03T01:21:50.153Z,18.00
2022-09-03T01:26:50.068Z,18.03
2022-09-03T01:31:50.052Z,17.97
2022-09-03T01:36:50.004Z,17.94
2022-09-03T01:41:49.995Z,18.03
2022-09-03T01:46:49.930Z,18.05
2022-09-03T01:51:49.756Z,18.03
2022-09-03T01:56:49.685Z,17.97
2022-09-03T02:01:49.706Z,17.90
2022-09-03T02:06:49.537Z,17.85
2022-09-03T02:11:49.490Z,17.89
2022-09-03T02:16:49.417Z,17.87
2022-09-03T02:21:49.352Z,17.83
2022-09-03T02:26:49.278Z,17.82
2022-09-03T02:31:49.224Z,17.76
2022-09-03T02:36:49.129Z,17.85
2022-09-03T02:41:49.086Z,17.87
2022-09-03T02:46:49.052Z,17.86
2022-09-03T02:51:49.159Z,17.76
2022-09-03T02:56:48.844Z,17.56
2022-09-03T03:01:48.808Z,17.63
2022-09-03T03:06:48.734Z,17.71
2022-09-03T03:11:48.721Z,17.79
2022-09-03T03:16:48.640Z,17.82
2022-09-03T03:21:48.568Z,17.85
2022-09-03T03:26:48.428Z,17.86
2022-09-03T03:31:48.397Z,17.87
2022-09-03T03:36:48.377Z,17.83
2022-09-03T03:41:48.276Z,17.89
2022-09-03T03:46:48.247Z,17.86
2022-09-03T03:51:48.172Z,17.85
2022-09-03T03:56:55.815Z,17.76
2022-09-03T04:01:49.042Z,17.72
2022-09-03T04:06:47.931Z,17.67
2022-09-03T04:11:47.852Z,17.59
2022-09-03T04:17:25.018Z,17.56
2022-09-03T04:22:13.739Z,17.63
2022-09-03T04:27:12.654Z,17.65
2022-09-03T04:32:12.599Z,17.63
2022-09-03T04:37:12.539Z,17.67
2022-09-03T04:42:12.436Z,17.72
2022-09-03T04:47:12.395Z,17.76
2022-09-03T04:52:12.330Z,17.79
2022-09-03T04:57:12.250Z,17.83
2022-09-03T05:02:12.311Z,17.86
2022-09-03T05:07:12.171Z,17.87
2022-09-03T05:12:12.049Z,17.90
2022-09-03T05:17:12.001Z,17.94
2022-09-03T05:22:11.923Z,17.90
2022-09-03T05:27:11.908Z,17.97
2022-09-03T05:32:11.840Z,18.01
2022-09-03T05:37:11.683Z,18.11
2022-09-03T05:42:11.651Z,18.25
2022-09-03T05:47:11.580Z,18.45
2022-09-03T05:52:11.548Z,18.41
2022-09-03T05:57:11.509Z,18.49
2022-09-03T06:02:12.148Z,18.66
2022-09-03T06:07:11.301Z,18.78
2022-09-03T06:12:11.272Z,18.86
2022-09-03T06:17:11.164Z,18.90
2022-09-03T06:22:11.100Z,18.77
2022-09-03T06:27:11.032Z,18.70
2022-09-03T06:32:10.973Z,18.71
2022-09-03T06:37:10.887Z,18.62
2022-09-03T06:42:10.820Z,18.40
2022-09-03T06:47:10.788Z,18.13
2022-09-03T06:52:10.700Z,17.89
2022-09-03T06:57:10.622Z,17.56
2022-09-03T07:02:10.728Z,17.36
2022-09-03T07:07:10.567Z,17.27
2022-09-03T07:12:10.442Z,17.11
2022-09-03T07:17:10.374Z,16.99
2022-09-03T07:22:10.297Z,17.08
2022-09-03T07:27:14.434Z,17.19
2022-09-03T07:32:10.270Z,17.33
2022-09-03T07:37:10.075Z,17.60
2022-09-03T07:42:09.999Z,17.78
2022-09-03T07:47:09.924Z,17.74
2022-09-03T07:52:12.247Z,18.16
2022-09-03T07:57:10.891Z,18.31
2022-09-03T08:02:10.163Z,18.58
2022-09-03T08:07:09.678Z,18.83
2022-09-03T08:12:09.756Z,19.09
2022-09-03T08:17:09.526Z,19.45
2022-09-03T08:22:09.477Z,19.56
2022-09-03T08:27:09.456Z,19.51
2022-09-03T08:32:09.330Z,19.77
2022-09-03T08:37:09.296Z,20.24
2022-09-03T08:42:09.285Z,21.17
2022-09-03T08:47:09.143Z,21.30
2022-09-03T08:52:09.066Z,21.66
2022-09-03T08:57:08.973Z,22.26
2022-09-03T09:02:09.053Z,23.13
2022-09-03T09:07:08.904Z,25.10
2022-09-03T09:12:08.852Z,28.67
2022-09-03T09:17:09.018Z,30.44
2022-09-03T09:22:08.954Z,28.67
2022-09-03T09:27:11.766Z,26.90
2022-09-03T09:32:09.601Z,24.14
2022-09-03T09:37:08.457Z,23.37
2022-09-03T09:42:08.408Z,23.84
2022-09-03T09:47:08.337Z,25.44
2022-09-03T09:52:08.292Z,29.69
2022-09-03T09:57:08.186Z,29.47
2022-09-03T10:02:08.119Z,26.22
2022-09-03T10:07:08.069Z,24.53
2022-09-03T10:12:08.097Z,24.08
2022-09-03T10:17:07.924Z,23.86
2022-09-03T10:22:07.923Z,25.41
2022-09-03T10:27:07.782Z,24.08
2022-09-03T10:32:07.731Z,23.28
2022-09-03T10:37:07.640Z,22.75
2022-09-03T10:42:07.798Z,22.99
2022-09-03T10:47:07.551Z,23.98
2022-09-03T10:52:07.528Z,25.47
2022-09-03T10:57:07.677Z,25.77
2022-09-03T11:02:08.201Z,29.49
2022-09-03T11:07:07.255Z,26.10
2022-09-03T11:12:07.193Z,24.32
2022-09-03T11:17:07.127Z,23.74
2022-09-03T11:22:07.133Z,24.26
2022-09-03T11:27:06.991Z,26.89
2022-09-03T11:32:06.933Z,25.73
2022-09-03T11:37:06.871Z,25.54
2022-09-03T11:42:06.804Z,28.82
2022-09-03T11:47:06.754Z,30.06
2022-09-03T11:52:06.670Z,31.14
2022-09-03T11:57:06.609Z,31.33
2022-09-03T12:02:06.604Z,30.47
2022-09-03T12:07:06.485Z,29.90
2022-09-03T12:12:06.407Z,29.97
2022-09-03T12:17:06.346Z,31.20
2022-09-03T12:22:06.304Z,30.66
2022-09-03T12:27:06.255Z,30.30
2022-09-03T12:32:06.181Z,29.95
2022-09-03T12:37:06.306Z,30.39
2022-09-03T12:42:06.085Z,31.27
2022-09-03T12:52:06.901Z,28.76
2022-09-03T12:57:05.814Z,27.25
2022-09-03T13:02:05.855Z,26.59
2022-09-03T13:07:05.685Z,26.81
2022-09-03T13:12:05.600Z,26.83
2022-09-03T13:17:05.645Z,27.95
2022-09-03T13:22:05.500Z,28.07
2022-09-03T13:27:05.472Z,27.54
2022-09-03T13:32:06.278Z,27.49
2022-09-03T13:37:05.339Z,27.89
2022-09-03T13:42:05.395Z,27.42
2022-09-03T13:47:05.229Z,27.10
2022-09-03T13:52:05.125Z,27.98
2022-09-03T13:57:05.096Z,27.20
2022-09-03T14:02:05.027Z,26.88
2022-09-03T14:07:04.890Z,26.26
2022-09-03T14:12:04.843Z,26.51
2022-09-03T14:17:04.743Z,27.45
2022-09-03T14:22:04.707Z,27.47
2022-09-03T14:27:04.632Z,27.90
2022-09-03T14:32:04.663Z,27.86
2022-09-03T14:37:04.506Z,27.48
2022-09-03T14:42:04.428Z,27.92
2022-09-03T14:47:04.393Z,27.22
2022-09-03T14:52:04.328Z,26.62
2022-09-03T14:57:04.286Z,25.87
2022-09-03T15:02:04.218Z,25.54
2022-09-03T15:07:04.106Z,24.95
2022-09-03T15:12:04.026Z,24.53
2022-09-03T15:17:04.026Z,24.29
2022-09-03T15:22:04.929Z,24.17
2022-09-03T15:27:03.852Z,24.08
2022-09-03T15:32:03.808Z,24.03
2022-09-03T15:37:07.156Z,23.44
2022-09-03T15:42:03.624Z,21.72
2022-09-03T15:47:03.653Z,20.52
2022-09-03T15:52:03.495Z,20.24
2022-09-03T15:57:03.443Z,19.71
2022-09-03T16:02:03.355Z,19.40
2022-09-03T16:07:03.300Z,19.22
2022-09-03T16:12:03.230Z,19.21
2022-09-03T16:17:03.145Z,19.24
2022-09-03T16:22:03.097Z,19.22
2022-09-03T16:27:03.047Z,18.93
2022-09-03T16:32:02.964Z,18.71
2022-09-03T16:37:02.917Z,18.59
2022-09-03T16:42:02.853Z,18.60
2022-09-03T16:47:02.775Z,18.60
2022-09-03T16:52:02.769Z,18.66
2022-09-03T16:57:02.579Z,18.68
2022-09-03T17:02:13.918Z,18.66
2022-09-03T17:07:03.471Z,18.80
2022-09-03T17:12:02.438Z,18.88
2022-09-03T17:17:02.385Z,19.04
2022-09-03T17:22:02.269Z,19.22
2022-09-03T17:27:04.245Z,19.37
2022-09-03T17:32:02.139Z,19.49
2022-09-03T17:37:02.065Z,19.55
2022-09-03T17:42:02.022Z,19.54
2022-09-03T17:47:02.038Z,19.48
2022-09-03T17:52:01.887Z,19.39
2022-09-03T17:57:01.790Z,19.31
2022-09-03T18:02:01.842Z,19.30
2022-09-03T18:07:01.762Z,19.21
2022-09-03T18:12:01.606Z,19.07
2022-09-03T18:17:01.530Z,18.99
2022-09-03T18:22:01.469Z,18.99
2022-09-03T18:27:01.400Z,18.84
2022-09-03T18:32:01.312Z,18.77
2022-09-03T18:37:01.262Z,18.71
2022-09-03T18:42:01.175Z,18.65
2022-09-03T18:52:02.065Z,18.37
2022-09-03T18:57:00.977Z,18.41
2022-09-03T19:02:01.016Z,18.40
2022-09-03T19:07:00.852Z,18.38
2022-09-03T19:12:00.798Z,18.38
2022-09-03T19:17:00.753Z,18.28
2022-09-03T19:22:00.667Z,18.16
2022-09-03T19:27:00.608Z,18.05
2022-09-03T19:32:00.511Z,18.03
2022-09-03T19:37:00.447Z,17.94
2022-09-03T19:42:00.453Z,17.86
2022-09-03T19:47:00.367Z,17.80
2022-09-03T19:52:00.257Z,17.71
2022-09-03T19:57:00.193Z,17.63
2022-09-03T20:02:00.166Z,17.60
2022-09-03T20:07:00.079Z,17.57
2022-09-03T20:12:03.192Z,17.52
2022-09-03T20:17:01.001Z,17.51
2022-09-03T20:21:59.965Z,17.46
2022-09-03T20:26:59.814Z,17.38
2022-09-03T20:31:59.691Z,17.31
2022-09-03T20:36:59.653Z,17.26
2022-09-03T20:41:59.853Z,17.29
2022-09-03T20:46:59.515Z,17.27
2022-09-03T20:51:59.437Z,17.09
2022-09-03T20:56:59.385Z,17.09
2022-09-03T21:01:59.339Z,17.09
2022-09-03T21:06:59.410Z,17.04
2022-09-03T21:11:59.221Z,17.06
2022-09-03T21:16:59.092Z,17.12
2022-09-03T21:21:59.021Z,17.12
2022-09-03T21:26:58.958Z,17.12
2022-09-03T21:31:58.855Z,17.12
2022-09-03T21:36:58.848Z,17.14
2022-09-03T21:41:58.781Z,17.16
2022-09-03T21:46:58.693Z,17.16
2022-09-03T21:51:58.894Z,17.11
2022-09-03T21:56:58.638Z,17.11
2022-09-03T22:01:58.614Z,17.14
2022-09-03T22:06:58.442Z,17.11
2022-09-03T22:11:58.381Z,17.01
2022-09-03T22:16:58.319Z,17.04
2022-09-03T22:21:59.188Z,16.94
2022-09-03T22:26:58.170Z,16.90
2022-09-03T22:31:58.065Z,16.84
2022-09-03T22:36:58.022Z,16.83
2022-09-03T22:41:57.964Z,16.75
2022-09-03T22:46:57.877Z,16.69
2022-09-03T22:51:57.798Z,16.71
2022-09-03T22:56:57.764Z,16.60
2022-09-03T23:01:57.681Z,16.56
2022-09-03T23:06:57.569Z,16.57
2022-09-03T23:11:57.558Z,16.56
2022-09-03T23:16:58.353Z,16.53
2022-09-03T23:21:57.439Z,16.49
2022-09-03T23:26:57.331Z,16.39
2022-09-03T23:31:57.342Z,16.36
2022-09-03T23:41:58.133Z,16.32
2022-09-03T23:46:57.070Z,16.28
2022-09-03T23:51:57.013Z,16.29
2022-09-03T23:56:56.933Z,16.31
